Time;durP1;ratioP1;P1;durP2;ratioP2;P2;SDS_P1;SDS_P2;PMS_P1;PMS_P2;Temp;Humidity;BMP_temperature;BMP_pressure;BME280_temperature;BME280_humidity;BME280_pressure;Samples;Min_cycle;Max_cycle;Signal;HPM_P1;HPM_P2
2022/04/02 00:00:45;;;;;;;15.95;7.72;;;0.80;99.90;;;;;;5042632;28;20106;-82
2022/04/02 00:03:11;;;;;;;13.65;6.88;;;0.80;99.90;;;;;;5065870;28;20017;-83
2022/04/02 00:05:37;;;;;;;11.15;6.93;;;0.80;99.90;;;;;;5044102;28;20025;-82
2022/04/02 00:08:03;;;;;;;11.77;7.13;;;0.80;99.90;;;;;;5042389;28;20116;-83
2022/04/02 00:10:28;;;;;;;13.35;7.10;;;0.80;99.90;;;;;;5044057;28;20059;-83
2022/04/02 00:12:55;;;;;;;10.07;6.32;;;0.80;99.90;;;;;;5042008;28;20139;-82
2022/04/02 00:15:22;;;;;;;11.77;6.60;;;0.80;99.90;;;;;;5059006;28;20071;-82
2022/04/02 00:17:47;;;;;;;11.30;6.30;;;0.80;99.90;;;;;;5040261;28;20107;-81
2022/04/02 00:20:13;;;;;;;11.68;5.65;;;0.90;99.90;;;;;;5039932;28;20102;-83
2022/04/02 00:23:35;;;;;;;8.65;5.13;;;0.90;99.90;;;;;;5040311;28;20388;-82
2022/04/02 00:25:24;;;;;;;12.77;5.68;;;0.90;99.90;;;;;;5057990;28;20450;-82
2022/04/02 00:27:50;;;;;;;12.90;5.75;;;0.90;99.90;;;;;;5058123;28;20032;-81
2022/04/02 00:30:16;;;;;;;12.43;6.28;;;0.80;99.90;;;;;;5059472;28;20480;-81
2022/04/02 00:32:41;;;;;;;10.95;5.57;;;0.90;99.90;;;;;;5058012;28;20029;-81
2022/04/02 00:35:08;;;;;;;9.40;5.65;;;0.80;99.90;;;;;;5039564;28;20096;-84
2022/04/02 00:37:34;;;;;;;10.10;5.32;;;0.80;99.90;;;;;;5040414;28;20029;-83
2022/04/02 00:40:00;;;;;;;8.35;4.82;;;0.80;99.90;;;;;;5040063;28;20044;-81
2022/04/02 00:42:26;;;;;;;12.85;5.20;;;0.80;99.90;;;;;;5039583;28;20029;-81
2022/04/02 00:44:52;;;;;;;11.55;5.65;;;0.80;99.90;;;;;;5067613;28;20032;-83
2022/04/02 00:47:17;;;;;;;10.82;4.97;;;0.80;99.90;;;;;;5060338;28;20500;-85
2022/04/02 00:49:43;;;;;;;7.45;4.85;;;0.80;99.90;;;;;;5078751;28;20035;-81
2022/04/02 00:52:09;;;;;;;12.65;5.88;;;0.80;99.90;;;;;;5061076;28;20375;-83
2022/04/02 00:54:35;;;;;;;7.88;4.03;;;0.80;99.90;;;;;;5060758;28;20095;-84
2022/04/02 00:57:01;;;;;;;12.50;5.95;;;0.80;99.90;;;;;;5060532;28;20029;-83
2022/04/02 00:59:27;;;;;;;17.88;8.20;;;0.80;99.90;;;;;;5077427;28;20052;-84
2022/04/02 01:01:52;;;;;;;14.57;6.72;;;0.90;99.90;;;;;;5060327;28;20476;-82
2022/04/02 01:04:18;;;;;;;15.18;6.00;;;0.80;99.90;;;;;;5077464;28;20024;-85
2022/04/02 01:06:45;;;;;;;19.88;10.13;;;0.90;99.90;;;;;;5059989;28;20052;-84
2022/04/02 01:09:11;;;;;;;18.35;8.88;;;0.90;99.90;;;;;;5077351;28;20039;-82
2022/04/02 01:11:37;;;;;;;16.88;8.05;;;0.90;99.90;;;;;;5078893;28;20104;-81
2022/04/02 01:14:03;;;;;;;19.15;10.50;;;0.90;99.90;;;;;;5058193;28;20035;-84
2022/04/02 01:16:30;;;;;;;23.52;11.85;;;0.90;99.90;;;;;;5057558;28;20032;-84
2022/04/02 01:18:55;;;;;;;21.20;9.63;;;0.90;99.90;;;;;;5077444;28;20024;-83
2022/04/02 01:21:21;;;;;;;20.20;9.63;;;0.90;99.90;;;;;;5060440;28;20051;-83
2022/04/02 01:23:47;;;;;;;12.75;7.78;;;0.90;99.90;;;;;;5078617;28;20044;-82
2022/04/02 01:26:12;;;;;;;12.48;7.10;;;0.90;99.90;;;;;;5077468;28;20055;-84
2022/04/02 01:28:40;;;;;;;15.15;8.00;;;1.00;99.90;;;;;;5077463;28;20036;-82
2022/04/02 01:31:07;;;;;;;10.13;5.90;;;0.90;99.90;;;;;;5078816;28;20036;-81
2022/04/02 01:33:33;;;;;;;13.85;6.40;;;0.90;99.90;;;;;;5059444;28;20032;-83
2022/04/02 01:36:04;;;;;;;9.75;5.07;;;0.90;99.90;;;;;;5077991;28;20028;-80
2022/04/02 01:38:30;;;;;;;13.48;6.40;;;0.90;99.90;;;;;;5077679;28;20069;-84
2022/04/02 01:40:56;;;;;;;9.02;5.00;;;0.90;99.90;;;;;;5077925;28;20028;-84
2022/04/02 01:43:23;;;;;;;16.13;7.57;;;0.90;99.90;;;;;;5060181;28;20025;-82
2022/04/02 01:45:56;;;;;;;12.95;4.95;;;0.80;99.90;;;;;;5059852;28;20033;-87
2022/04/02 01:48:22;;;;;;;11.35;4.78;;;0.90;99.90;;;;;;5057523;28;20028;-84
2022/04/02 01:50:48;;;;;;;10.90;4.35;;;0.90;99.90;;;;;;5040453;28;20093;-84
2022/04/02 01:53:14;;;;;;;11.20;4.10;;;0.90;99.90;;;;;;5040205;28;20481;-84
2022/04/02 01:55:39;;;;;;;15.45;6.55;;;0.90;99.90;;;;;;5058143;28;20111;-86
2022/04/02 01:58:05;;;;;;;14.52;6.45;;;0.90;99.90;;;;;;5040819;28;20029;-85
2022/04/02 02:00:31;;;;;;;6.43;3.38;;;0.90;99.90;;;;;;5040370;28;20025;-86
2022/04/02 02:02:57;;;;;;;13.73;5.75;;;1.00;99.90;;;;;;5040324;28;20025;-85
2022/04/02 02:05:23;;;;;;;10.80;4.35;;;0.90;99.90;;;;;;5044041;28;20032;-85
2022/04/02 02:07:51;;;;;;;8.90;3.33;;;1.00;99.90;;;;;;5061065;28;20025;-84
2022/04/02 02:10:18;;;;;;;10.60;4.30;;;1.00;99.90;;;;;;5047040;28;20054;-86
2022/04/02 02:12:44;;;;;;;6.65;3.65;;;1.00;99.90;;;;;;5044254;28;20132;-87
2022/04/02 02:15:16;;;;;;;9.13;4.70;;;1.00;99.90;;;;;;5043617;28;20068;-83
2022/04/02 02:17:43;;;;;;;18.48;6.38;;;1.00;99.90;;;;;;5045493;28;20025;-84
2022/04/02 02:20:09;;;;;;;8.30;3.00;;;1.00;99.90;;;;;;5062594;28;20025;-81
2022/04/02 02:22:34;;;;;;;6.15;3.03;;;1.00;99.90;;;;;;5045314;28;20547;-85
2022/04/02 02:25:00;;;;;;;12.65;4.90;;;1.00;99.90;;;;;;5044499;28;20029;-86
2022/04/02 02:27:26;;;;;;;8.40;4.07;;;1.00;99.90;;;;;;5062664;28;20075;-82
2022/04/02 02:29:52;;;;;;;21.45;7.70;;;1.00;99.90;;;;;;5044060;28;20025;-86
2022/04/02 02:32:17;;;;;;;8.38;3.83;;;1.00;99.90;;;;;;5043584;28;20017;-85
2022/04/02 02:37:30;;;;;;;16.10;6.18;;;1.00;99.90;;;;;;5061130;28;20039;-83
2022/04/02 02:39:55;;;;;;;4.47;2.80;;;1.00;99.90;;;;;;5042888;28;20017;-84
2022/04/02 02:42:21;;;;;;;8.52;3.10;;;0.90;99.90;;;;;;5043322;28;20021;-82
2022/04/02 02:44:47;;;;;;;8.27;2.60;;;1.00;99.90;;;;;;5069990;28;20358;-86
2022/04/02 02:47:12;;;;;;;15.95;6.22;;;1.00;99.90;;;;;;5062303;28;20033;-86
2022/04/02 02:49:38;;;;;;;4.65;2.70;;;0.90;99.90;;;;;;5080680;28;20032;-84
2022/04/02 02:52:04;;;;;;;28.73;9.63;;;1.00;99.90;;;;;;5079652;28;20103;-83
2022/04/02 02:54:30;;;;;;;13.70;6.55;;;1.00;99.90;;;;;;5061761;28;20203;-83
2022/04/02 02:56:55;;;;;;;7.75;3.38;;;1.00;99.90;;;;;;5080512;28;20136;-84
2022/04/02 02:59:21;;;;;;;13.50;6.10;;;1.00;99.90;;;;;;5079615;28;20021;-84
2022/04/02 03:01:46;;;;;;;12.20;4.28;;;1.00;99.90;;;;;;5060776;28;20391;-83
2022/04/02 03:04:12;;;;;;;6.80;2.80;;;1.00;99.90;;;;;;5079273;28;20023;-85
2022/04/02 03:06:37;;;;;;;4.70;2.47;;;1.00;99.90;;;;;;5060854;28;20029;-87
2022/04/02 03:09:04;;;;;;;10.35;3.55;;;1.00;99.90;;;;;;5061295;28;20029;-83
2022/04/02 03:11:29;;;;;;;5.95;2.53;;;1.00;99.90;;;;;;5080540;28;20115;-87
2022/04/02 03:13:56;;;;;;;7.20;3.17;;;0.90;99.90;;;;;;5080744;28;20123;-85
2022/04/02 03:16:21;;;;;;;7.65;2.35;;;1.00;99.90;;;;;;5080688;28;20055;-85
2022/04/02 03:18:47;;;;;;;14.05;3.97;;;1.00;99.90;;;;;;5061996;28;20020;-84
2022/04/02 03:21:12;;;;;;;25.98;7.43;;;1.00;99.90;;;;;;5061992;28;20028;-85
2022/04/02 03:23:38;;;;;;;5.70;2.80;;;1.00;99.90;;;;;;5062578;28;20027;-84
2022/04/02 03:26:04;;;;;;;7.45;3.63;;;0.90;99.90;;;;;;5080811;28;20509;-85
2022/04/02 03:28:29;;;;;;;8.18;2.78;;;0.90;99.90;;;;;;5062918;28;20084;-86
2022/04/02 03:30:55;;;;;;;5.82;2.20;;;0.90;99.90;;;;;;5064432;28;20028;-85
2022/04/02 03:33:21;;;;;;;9.55;4.15;;;0.90;99.90;;;;;;5081471;28;20072;-84
2022/04/02 03:35:48;;;;;;;5.72;3.13;;;0.90;99.90;;;;;;5081752;28;20041;-83
2022/04/02 03:38:14;;;;;;;8.52;3.47;;;0.90;99.90;;;;;;5079845;28;20075;-85
2022/04/02 03:40:41;;;;;;;11.80;4.63;;;0.90;99.90;;;;;;5079517;28;20035;-84
2022/04/02 03:43:06;;;;;;;6.80;3.15;;;0.90;99.90;;;;;;5061684;28;20494;-85
2022/04/02 03:45:32;;;;;;;9.27;3.25;;;0.90;99.90;;;;;;5061530;28;20032;-84
2022/04/02 03:47:58;;;;;;;6.22;2.50;;;0.90;99.90;;;;;;5080452;28;20031;-84
2022/04/02 03:50:23;;;;;;;7.20;2.50;;;0.90;99.90;;;;;;5072495;28;20039;-79
2022/04/02 03:52:49;;;;;;;3.40;1.95;;;0.90;99.90;;;;;;5092070;28;20032;-79
2022/04/02 03:55:16;;;;;;;4.75;2.38;;;0.80;99.90;;;;;;5075668;28;20028;-82
2022/04/02 03:57:41;;;;;;;6.35;2.60;;;0.90;99.90;;;;;;5063948;28;20028;-82
2022/04/02 04:00:08;;;;;;;7.30;2.80;;;0.90;99.90;;;;;;5080162;28;20028;-84
2022/04/02 04:02:37;;;;;;;8.18;4.00;;;0.90;99.90;;;;;;5081349;28;20020;-84
2022/04/02 04:05:05;;;;;;;7.13;2.60;;;0.90;99.90;;;;;;5080058;28;20020;-85
2022/04/02 04:07:30;;;;;;;5.97;2.42;;;0.90;99.90;;;;;;5086676;28;20016;-85
2022/04/02 04:09:56;;;;;;;7.30;3.22;;;0.80;99.90;;;;;;5077741;28;20027;-81
2022/04/02 04:12:22;;;;;;;8.73;3.67;;;0.80;99.90;;;;;;5066198;28;20071;-81
2022/04/02 04:14:47;;;;;;;4.70;2.22;;;0.80;99.90;;;;;;5063126;28;20079;-84
2022/04/02 04:17:14;;;;;;;6.88;3.05;;;0.80;99.90;;;;;;5074132;28;20016;-82
2022/04/02 04:19:40;;;;;;;5.70;2.28;;;0.90;99.90;;;;;;5086535;28;20087;-84
2022/04/02 04:22:06;;;;;;;8.32;3.08;;;0.90;99.90;;;;;;5070865;28;20020;-81
2022/04/02 04:24:33;;;;;;;6.35;2.88;;;0.80;99.90;;;;;;5085860;28;20025;-84
2022/04/02 04:26:59;;;;;;;6.25;2.65;;;0.90;99.90;;;;;;5091065;28;20032;-80
2022/04/02 04:29:24;;;;;;;6.88;2.78;;;0.90;99.90;;;;;;5078205;28;20095;-81
2022/04/02 04:31:50;;;;;;;5.90;2.60;;;0.80;99.90;;;;;;5096124;28;20028;-83
2022/04/02 04:34:17;;;;;;;5.43;2.63;;;0.80;99.90;;;;;;5078463;28;20067;-81
2022/04/02 04:36:43;;;;;;;5.72;2.50;;;0.80;99.90;;;;;;5095382;28;20058;-85
2022/04/02 04:39:08;;;;;;;6.22;3.15;;;0.80;99.90;;;;;;5089432;28;20048;-84
2022/04/02 04:41:38;;;;;;;10.07;4.82;;;0.80;99.90;;;;;;5087164;28;20550;-84
2022/04/02 04:44:04;;;;;;;5.05;2.67;;;0.80;99.90;;;;;;5084253;28;20040;-84
2022/04/02 04:46:29;;;;;;;4.13;2.35;;;0.80;99.90;;;;;;5051942;28;20085;-83
2022/04/02 04:48:55;;;;;;;4.47;2.30;;;0.80;99.90;;;;;;5048685;28;20028;-83
2022/04/02 04:51:23;;;;;;;7.72;2.40;;;0.80;99.90;;;;;;5049969;28;20031;-86
2022/04/02 04:54:05;;;;;;;4.40;2.40;;;0.80;99.90;;;;;;5101537;27;1301807;-80
2022/04/02 04:56:31;;;;;;;3.60;2.15;;;0.80;99.90;;;;;;5134084;27;20028;-78
2022/04/02 04:58:57;;;;;;;5.15;2.50;;;0.70;99.90;;;;;;5131748;28;20023;-80
2022/04/02 05:01:22;;;;;;;4.18;2.45;;;0.70;99.90;;;;;;5131642;28;20341;-78
2022/04/02 05:03:48;;;;;;;6.20;2.47;;;0.80;99.90;;;;;;5130791;27;20463;-76
2022/04/02 05:06:14;;;;;;;6.18;2.95;;;0.70;99.90;;;;;;5130978;28;20503;-80
2022/04/02 05:08:40;;;;;;;5.72;2.47;;;0.70;99.90;;;;;;5129744;28;20016;-80
2022/04/02 05:11:07;;;;;;;3.30;2.30;;;0.70;99.90;;;;;;5130102;28;20076;-79
2022/04/02 05:13:32;;;;;;;5.93;2.50;;;0.80;99.90;;;;;;5130008;27;20407;-80
2022/04/02 05:15:58;;;;;;;2.88;2.05;;;0.70;99.90;;;;;;5129914;28;20054;-77
2022/04/02 05:18:26;;;;;;;3.15;2.05;;;0.80;99.90;;;;;;5131296;27;20027;-79
2022/04/02 05:20:51;;;;;;;4.60;2.60;;;0.80;99.90;;;;;;5131364;27;20088;-78
2022/04/02 05:23:17;;;;;;;5.10;2.35;;;0.80;99.90;;;;;;5132335;27;20440;-81
2022/04/02 05:25:43;;;;;;;3.83;2.28;;;0.70;99.90;;;;;;5133990;27;20074;-81
2022/04/02 05:28:09;;;;;;;5.45;2.28;;;0.70;99.90;;;;;;5130266;28;20031;-80
2022/04/02 05:30:39;;;;;;;4.50;1.98;;;0.80;99.90;;;;;;5130140;28;20125;-79
2022/04/02 05:33:06;;;;;;;4.07;2.33;;;0.80;99.90;;;;;;5131327;27;20099;-77
2022/04/02 05:35:32;;;;;;;3.97;2.25;;;0.80;99.90;;;;;;5130767;27;20421;-77
2022/04/02 05:37:58;;;;;;;7.88;2.45;;;0.80;99.90;;;;;;5129993;28;20031;-80
2022/04/02 05:40:24;;;;;;;3.50;2.35;;;0.80;99.90;;;;;;5130767;28;20023;-79
2022/04/02 05:42:50;;;;;;;3.17;2.42;;;0.80;99.90;;;;;;5129854;27;20062;-79
2022/04/02 05:45:16;;;;;;;6.03;2.75;;;0.80;99.90;;;;;;5128422;28;20024;-79
2022/04/02 05:47:50;;;;;;;5.00;2.50;;;0.80;99.90;;;;;;5130593;28;20498;-79
2022/04/02 05:50:17;;;;;;;3.10;2.30;;;0.90;99.90;;;;;;5131290;27;20028;-78
2022/04/02 05:52:43;;;;;;;4.53;2.10;;;0.90;99.90;;;;;;5128287;28;20482;-77
2022/04/02 05:55:13;;;;;;;5.18;2.38;;;0.90;99.90;;;;;;5128871;28;20027;-79
2022/04/02 05:57:41;;;;;;;7.78;2.20;;;0.90;99.90;;;;;;5129038;28;20078;-79
2022/04/02 06:00:10;;;;;;;7.10;2.63;;;0.90;99.90;;;;;;5128000;28;20040;-79
2022/04/02 06:02:36;;;;;;;4.38;2.58;;;0.90;99.90;;;;;;5127980;28;20023;-79
2022/04/02 06:05:03;;;;;;;5.82;2.22;;;0.90;99.90;;;;;;5116089;28;20125;-77
2022/04/02 06:07:28;;;;;;;5.35;2.70;;;1.00;99.90;;;;;;5115025;28;20132;-78
2022/04/02 06:09:54;;;;;;;3.30;2.50;;;1.00;99.90;;;;;;5114134;28;20493;-78
2022/04/02 06:12:19;;;;;;;4.00;2.47;;;1.00;99.90;;;;;;5114664;28;20091;-80
2022/04/02 06:14:45;;;;;;;5.50;2.42;;;1.00;99.90;;;;;;5116625;28;20091;-79
2022/04/02 06:17:10;;;;;;;5.03;2.15;;;1.00;99.90;;;;;;5115391;28;20185;-76
2022/04/02 06:19:36;;;;;;;3.38;2.05;;;1.10;99.90;;;;;;5115763;28;20057;-77
2022/04/02 06:22:06;;;;;;;3.85;2.40;;;1.10;99.90;;;;;;5116514;28;20023;-79
2022/04/02 06:24:33;;;;;;;3.83;2.38;;;1.10;99.90;;;;;;5116222;28;20142;-77
2022/04/02 06:26:58;;;;;;;5.68;2.67;;;1.10;99.90;;;;;;5117206;28;20066;-79
2022/04/02 06:29:24;;;;;;;5.07;2.80;;;1.10;99.90;;;;;;5116272;28;20028;-78
2022/04/02 06:31:49;;;;;;;5.75;2.63;;;1.20;99.90;;;;;;5115566;28;20028;-79
2022/04/02 06:34:15;;;;;;;4.22;2.03;;;1.20;99.90;;;;;;5116825;28;20019;-80
2022/04/02 06:36:42;;;;;;;4.53;2.42;;;1.20;99.90;;;;;;5117078;28;20026;-79
2022/04/02 06:39:07;;;;;;;7.22;3.20;;;1.20;99.90;;;;;;5114056;28;20015;-78
2022/04/02 06:41:33;;;;;;;5.95;2.60;;;1.30;99.90;;;;;;5114322;28;20386;-79
2022/04/02 06:43:58;;;;;;;7.18;2.38;;;1.30;99.90;;;;;;5112611;28;20073;-79
2022/04/02 06:46:24;;;;;;;3.90;2.42;;;1.30;99.90;;;;;;5094963;28;20028;-80
2022/04/02 06:48:49;;;;;;;5.07;2.30;;;1.40;99.90;;;;;;5094280;28;20031;-78
2022/04/02 06:51:17;;;;;;;4.97;2.70;;;1.40;99.90;;;;;;5095161;28;20525;-79
2022/04/02 06:53:42;;;;;;;10.20;2.67;;;1.40;99.90;;;;;;5092957;28;20089;-78
2022/04/02 06:56:08;;;;;;;3.90;2.47;;;1.50;99.90;;;;;;5092666;28;20459;-78
2022/04/02 06:58:39;;;;;;;6.07;2.67;;;1.50;99.90;;;;;;5094127;28;20493;-79
2022/04/02 07:01:05;;;;;;;4.32;2.70;;;1.50;99.90;;;;;;5094531;28;20334;-78
2022/04/02 07:03:31;;;;;;;3.65;2.42;;;1.60;99.90;;;;;;5093196;28;20087;-80
2022/04/02 07:05:57;;;;;;;4.70;2.33;;;1.60;99.90;;;;;;5094682;28;20368;-78
2022/04/02 07:08:22;;;;;;;3.42;2.28;;;1.60;99.90;;;;;;5094572;28;20201;-80
2022/04/02 07:10:48;;;;;;;5.82;3.03;;;1.60;99.90;;;;;;5093189;28;20032;-78
2022/04/02 07:13:15;;;;;;;4.72;2.40;;;1.60;99.90;;;;;;5094503;28;20528;-79
2022/04/02 07:15:40;;;;;;;4.35;2.55;;;1.70;99.90;;;;;;5092406;28;20407;-77
2022/04/02 07:18:09;;;;;;;8.30;2.58;;;1.70;99.90;;;;;;5094077;28;20028;-78
2022/04/02 07:20:36;;;;;;;6.32;2.70;;;1.80;99.90;;;;;;5093279;28;20024;-81
2022/04/02 07:23:03;;;;;;;5.15;2.50;;;1.80;99.90;;;;;;5092047;28;20028;-80
2022/04/02 07:25:35;;;;;;;4.30;2.70;;;1.80;99.90;;;;;;5093659;28;20046;-81
2022/04/02 07:28:02;;;;;;;4.28;2.30;;;1.80;99.90;;;;;;5092671;28;20032;-79
2022/04/02 07:30:28;;;;;;;7.78;3.22;;;1.90;99.90;;;;;;5093339;28;20487;-82
2022/04/02 07:32:54;;;;;;;5.22;2.60;;;1.90;99.90;;;;;;5097062;28;20051;-82
2022/04/02 07:35:19;;;;;;;5.93;2.95;;;1.90;99.90;;;;;;5104206;28;20024;-82
2022/04/02 07:37:58;;;;;;;6.43;2.55;;;2.00;99.90;;;;;;5111087;28;20024;-81
2022/04/02 07:40:25;;;;;;;6.80;3.00;;;2.10;99.90;;;;;;5117000;28;20023;-81
2022/04/02 07:43:12;;;;;;;4.70;2.90;;;2.20;99.90;;;;;;5114567;28;20031;-79
2022/04/02 07:45:45;;;;;;;5.88;2.45;;;2.30;99.90;;;;;;5120936;28;20096;-80
2022/04/02 07:48:11;;;;;;;8.65;2.78;;;2.30;99.90;;;;;;5121261;28;20051;-84
2022/04/02 07:50:47;;;;;;;5.15;3.00;;;2.30;99.90;;;;;;5124123;28;20024;-82
2022/04/02 07:53:23;;;;;;;3.42;2.38;;;2.40;99.90;;;;;;5121558;27;20088;-80
2022/04/02 07:56:03;;;;;;;3.35;2.47;;;2.40;99.90;;;;;;5118928;28;20474;-81
2022/04/02 07:58:31;;;;;;;5.85;2.90;;;2.50;99.90;;;;;;5118303;28;20028;-80
2022/04/02 08:01:00;;;;;;;6.43;2.60;;;2.60;99.90;;;;;;5117227;28;20483;-80
2022/04/02 08:03:28;;;;;;;5.35;2.47;;;2.70;99.90;;;;;;5116872;28;20352;-82
2022/04/02 08:05:55;;;;;;;5.40;3.03;;;2.70;99.90;;;;;;5117112;28;20034;-81
2022/04/02 08:08:25;;;;;;;6.10;2.85;;;2.80;99.90;;;;;;5117946;27;20046;-79
2022/04/02 08:10:52;;;;;;;6.90;3.22;;;3.00;99.90;;;;;;5119703;28;20579;-79
2022/04/02 08:13:19;;;;;;;4.63;2.45;;;2.90;99.90;;;;;;5117521;28;20501;-77
2022/04/02 08:15:45;;;;;;;6.40;2.80;;;3.00;99.90;;;;;;5118369;28;20020;-80
2022/04/02 08:18:13;;;;;;;5.55;2.88;;;3.00;99.90;;;;;;5116389;28;20020;-77
2022/04/02 08:20:39;;;;;;;5.43;2.83;;;3.00;99.90;;;;;;5115770;28;20405;-80
2022/04/02 08:23:05;;;;;;;6.22;2.72;;;3.20;99.90;;;;;;5117873;27;20028;-76
2022/04/02 08:25:35;;;;;;;4.97;2.80;;;3.20;99.90;;;;;;5116861;28;20034;-77
2022/04/02 08:28:05;;;;;;;5.10;2.95;;;3.20;99.90;;;;;;5114943;28;20038;-78
2022/04/02 08:30:33;;;;;;;5.53;3.00;;;3.30;99.90;;;;;;5115199;28;20110;-76
2022/04/02 08:33:22;;;;;;;4.28;2.40;;;3.30;99.90;;;;;;5115984;28;20041;-76
2022/04/02 08:36:09;;;;;;;7.13;3.08;;;3.50;99.90;;;;;;5116118;28;20051;-76
2022/04/02 08:38:59;;;;;;;6.82;3.08;;;3.60;99.90;;;;;;5116442;28;20027;-79
2022/04/02 08:42:02;;;;;;;10.20;3.13;;;3.60;99.90;;;;;;5116901;28;20112;-77
2022/04/02 08:44:49;;;;;;;4.35;2.95;;;3.60;99.90;;;;;;5109793;28;20525;-78
2022/04/02 08:48:03;;;;;;;6.90;2.95;;;3.70;99.90;;;;;;5094190;28;20039;-75
2022/04/02 08:50:31;;;;;;;4.28;2.53;;;3.80;99.90;;;;;;5087995;28;20051;-79
2022/04/02 08:53:16;;;;;;;5.55;2.80;;;3.80;99.90;;;;;;5094765;28;20032;-79
2022/04/02 08:55:50;;;;;;;5.57;2.92;;;3.90;99.90;;;;;;5094937;28;20024;-80
2022/04/02 08:58:56;;;;;;;4.80;2.67;;;3.90;99.90;;;;;;5093442;28;20517;-82
2022/04/02 09:01:36;;;;;;;3.80;2.60;;;4.20;99.90;;;;;;5097274;28;20317;-80
2022/04/02 09:04:49;;;;;;;5.05;3.03;;;4.20;99.90;;;;;;5096915;28;20095;-79
2022/04/02 09:07:21;;;;;;;6.28;3.10;;;4.10;99.90;;;;;;5096699;28;20032;-75
2022/04/02 09:09:47;;;;;;;4.38;3.08;;;4.10;99.90;;;;;;5096492;28;20024;-76
2022/04/02 09:12:27;;;;;;;6.85;2.53;;;4.30;99.90;;;;;;5095241;28;20077;-76
2022/04/02 09:15:08;;;;;;;7.13;2.75;;;4.30;99.90;;;;;;5096428;28;20028;-78
2022/04/02 09:17:36;;;;;;;6.80;2.70;;;4.40;99.90;;;;;;5094418;28;20421;-76
2022/04/02 09:20:20;;;;;;;5.97;2.67;;;4.50;99.90;;;;;;5093718;28;20038;-77
2022/04/02 09:22:57;;;;;;;5.63;3.00;;;4.30;99.90;;;;;;5095416;28;20395;-78
2022/04/02 09:25:25;;;;;;;5.63;3.35;;;4.20;99.90;;;;;;5095516;28;20078;-76
2022/04/02 09:28:00;;;;;;;4.20;2.58;;;4.40;99.90;;;;;;5094000;28;20028;-78
2022/04/02 09:31:01;;;;;;;4.53;2.80;;;4.40;99.90;;;;;;5096076;28;20092;-79
2022/04/02 09:33:41;;;;;;;6.10;3.15;;;4.30;99.90;;;;;;5109498;28;20051;-80
2022/04/02 09:36:16;;;;;;;5.93;3.15;;;4.50;99.90;;;;;;5095200;28;20028;-79
2022/04/02 09:39:02;;;;;;;9.48;3.83;;;4.50;99.90;;;;;;5094486;28;20027;-77
2022/04/02 09:41:44;;;;;;;5.18;2.85;;;4.70;99.90;;;;;;5097833;28;20031;-79
2022/04/02 09:44:31;;;;;;;4.53;2.70;;;4.50;99.90;;;;;;5101900;28;20039;-80
2022/04/02 09:47:04;;;;;;;4.47;2.67;;;4.50;99.90;;;;;;5120167;27;20470;-79
2022/04/02 09:49:51;;;;;;;6.65;2.97;;;4.50;99.90;;;;;;5119679;28;20023;-79
2022/04/02 09:52:22;;;;;;;4.07;3.10;;;4.40;99.90;;;;;;5118277;28;20308;-79
2022/04/02 09:55:04;;;;;;;11.10;3.83;;;4.10;99.90;;;;;;5119049;28;20023;-77
2022/04/02 09:57:39;;;;;;;4.95;3.03;;;4.10;99.90;;;;;;5117561;28;20023;-79
2022/04/02 10:00:08;;;;;;;;;;;4.20;99.90;;;;;;5118434;28;20019;-79
2022/04/02 10:02:57;;;;;;;10.57;4.85;;;4.10;99.90;;;;;;5118548;28;19930;-78
2022/04/02 10:05:28;;;;;;;5.05;3.33;;;4.30;99.90;;;;;;5116360;28;20089;-79
2022/04/02 10:08:10;;;;;;;6.35;3.53;;;4.30;99.90;;;;;;5118255;28;20099;-80
2022/04/02 10:10:38;;;;;;;7.30;3.38;;;4.30;99.90;;;;;;5117465;28;20028;-79
2022/04/02 10:13:06;;;;;;;5.32;3.15;;;4.20;99.90;;;;;;5117814;28;20107;-79
2022/04/02 10:15:32;;;;;;;10.55;4.60;;;4.10;99.90;;;;;;5117645;28;20102;-79
2022/04/02 10:18:03;;;;;;;7.50;3.38;;;4.00;99.90;;;;;;5116667;27;20023;-75
2022/04/02 10:20:30;;;;;;;5.35;3.30;;;3.80;99.90;;;;;;5118150;27;20062;-79
2022/04/02 10:23:30;;;;;;;5.78;4.00;;;3.80;99.90;;;;;;5116174;28;20024;-79
2022/04/02 10:26:22;;;;;;;7.60;3.97;;;3.90;99.90;;;;;;5098960;28;20059;-79
2022/04/02 10:28:52;;;;;;;4.35;3.20;;;3.80;99.90;;;;;;5110782;28;20139;-80
2022/04/02 10:31:39;;;;;;;7.82;3.72;;;3.80;99.90;;;;;;5115751;28;20115;-81
2022/04/02 10:34:09;;;;;;;8.38;4.20;;;3.70;99.90;;;;;;5115707;28;20024;-79
2022/04/02 10:36:41;;;;;;;7.15;3.70;;;3.70;99.90;;;;;;5116470;28;20034;-79
2022/04/02 10:39:08;;;;;;;6.45;3.55;;;3.60;99.90;;;;;;5115994;28;20030;-80
2022/04/02 10:41:39;;;;;;;7.43;3.85;;;3.60;99.90;;;;;;5117378;28;20050;-82
2022/04/02 10:44:27;;;;;;;8.35;3.72;;;3.90;99.90;;;;;;5113259;28;20012;-78
2022/04/02 10:46:57;;;;;;;7.45;3.67;;;4.00;99.90;;;;;;5096487;28;20031;-80
2022/04/02 10:49:32;;;;;;;7.30;3.95;;;4.00;99.90;;;;;;5096281;28;20031;-80
2022/04/02 10:52:01;;;;;;;7.63;3.45;;;3.90;99.90;;;;;;5098284;28;20025;-79
2022/04/02 10:54:28;;;;;;;6.60;3.83;;;3.90;99.90;;;;;;5100731;28;20055;-79
2022/04/02 10:56:57;;;;;;;4.82;3.22;;;4.00;99.90;;;;;;5101198;28;20020;-80
2022/04/02 10:59:30;;;;;;;11.25;3.85;;;4.10;99.90;;;;;;5100632;28;20089;-80
2022/04/02 11:01:59;;;;;;;5.97;3.55;;;4.20;99.90;;;;;;5098126;28;20119;-80
2022/04/02 11:04:55;;;;;;;8.88;3.53;;;4.10;99.90;;;;;;5097401;28;20398;-79
2022/04/02 11:07:29;;;;;;;6.38;3.92;;;4.00;99.90;;;;;;5097173;28;20043;-78
2022/04/02 11:09:58;;;;;;;6.43;3.67;;;3.80;99.90;;;;;;5096197;28;20020;-82
2022/04/02 11:12:38;;;;;;;5.47;3.60;;;3.70;99.90;;;;;;5095973;28;20408;-81
2022/04/02 11:15:20;;;;;;;7.28;3.72;;;3.80;99.90;;;;;;5095398;28;20024;-80
2022/04/02 11:17:49;;;;;;;7.32;3.50;;;3.90;99.90;;;;;;5095619;28;20046;-78
2022/04/02 11:20:22;;;;;;;10.48;5.97;;;3.90;99.90;;;;;;5095755;28;20048;-81
2022/04/02 11:22:59;;;;;;;8.02;4.00;;;3.80;99.90;;;;;;5094784;28;20032;-81
2022/04/02 11:25:36;;;;;;;7.50;4.05;;;3.80;99.90;;;;;;5094647;28;20062;-77
2022/04/02 11:28:05;;;;;;;6.88;4.20;;;3.80;99.90;;;;;;5094858;28;20095;-81
2022/04/02 11:30:33;;;;;;;7.72;4.28;;;3.90;99.90;;;;;;5095469;28;20082;-79
2022/04/02 11:33:25;;;;;;;8.05;4.30;;;4.10;99.90;;;;;;5095123;28;20038;-80
2022/04/02 11:35:56;;;;;;;7.43;4.18;;;4.10;99.90;;;;;;5090851;28;20081;-80
2022/04/02 11:38:22;;;;;;;6.22;3.85;;;4.10;99.90;;;;;;5094947;28;20056;-80
2022/04/02 11:41:07;;;;;;;6.53;4.00;;;3.90;99.90;;;;;;5096227;28;20028;-78
2022/04/02 11:43:40;;;;;;;8.43;4.15;;;3.70;99.90;;;;;;5097224;28;20352;-79
2022/04/02 11:46:09;;;;;;;6.82;4.70;;;3.50;99.90;;;;;;5097006;28;20376;-81
2022/04/02 11:48:56;;;;;;;8.30;4.43;;;3.40;99.90;;;;;;5100141;28;20149;-79
2022/04/02 11:51:28;;;;;;;9.57;4.78;;;3.50;99.90;;;;;;5109924;28;20024;-80
2022/04/02 11:54:10;;;;;;;7.05;4.07;;;3.60;99.90;;;;;;5110560;28;20016;-82
2022/04/02 11:56:43;;;;;;;7.40;4.72;;;3.70;99.90;;;;;;5112560;28;20036;-79
2022/04/02 11:59:15;;;;;;;7.25;4.47;;;3.70;99.90;;;;;;5099564;28;20118;-79
2022/04/02 12:01:50;;;;;;;8.95;4.47;;;3.60;99.90;;;;;;5096074;28;20020;-79
2022/04/02 12:04:24;;;;;;;8.25;4.05;;;3.60;99.90;;;;;;5095408;28;20028;-79
2022/04/02 12:06:51;;;;;;;7.47;3.75;;;3.50;99.90;;;;;;5096716;28;20447;-78
2022/04/02 12:09:23;;;;;;;6.30;4.43;;;3.50;99.90;;;;;;5096430;28;20031;-79
2022/04/02 12:11:56;;;;;;;6.38;3.40;;;3.40;99.90;;;;;;5095826;28;20076;-79
2022/04/02 12:14:30;;;;;;;9.48;4.90;;;3.50;99.90;;;;;;5097994;28;20020;-78
2022/04/02 12:17:01;;;;;;;5.97;3.88;;;3.70;99.90;;;;;;5096331;28;20016;-78
2022/04/02 12:19:44;;;;;;;8.57;4.47;;;3.90;99.90;;;;;;5096808;28;20024;-79
2022/04/02 12:22:39;;;;;;;8.23;3.63;;;4.20;99.90;;;;;;5097307;28;20054;-80
2022/04/02 12:25:06;;;;;;;12.85;4.50;;;4.40;99.90;;;;;;5093032;28;20039;-79
2022/04/02 12:27:34;;;;;;;6.82;4.05;;;4.50;99.90;;;;;;5097773;28;20026;-78
2022/04/02 12:30:03;;;;;;;7.25;4.35;;;4.60;99.90;;;;;;5095993;28;20024;-80
2022/04/02 12:32:32;;;;;;;4.88;3.47;;;4.80;99.90;;;;;;5097168;28;20028;-81
2022/04/02 12:35:02;;;;;;;5.25;3.72;;;5.00;99.90;;;;;;5096897;28;20020;-78
2022/04/02 12:37:30;;;;;;;7.30;3.42;;;5.10;99.90;;;;;;5096338;28;20024;-80
2022/04/02 12:39:57;;;;;;;7.45;3.28;;;5.20;99.90;;;;;;5096028;28;20017;-79
2022/04/02 12:42:38;;;;;;;4.53;3.30;;;5.30;99.90;;;;;;5095407;28;20020;-82
2022/04/02 12:45:06;;;;;;;6.85;3.50;;;5.50;99.90;;;;;;5107339;28;20057;-79
2022/04/02 12:47:33;;;;;;;5.63;3.45;;;5.40;99.90;;;;;;5116438;28;20027;-79
2022/04/02 12:50:13;;;;;;;5.90;3.78;;;5.30;99.90;;;;;;5115825;28;20019;-81
2022/04/02 12:52:50;;;;;;;4.38;3.28;;;5.20;99.90;;;;;;5114870;28;20449;-77
2022/04/02 12:55:17;;;;;;;4.60;3.40;;;5.10;99.90;;;;;;5116600;28;20024;-80
2022/04/02 12:58:00;;;;;;;6.80;3.53;;;4.90;99.90;;;;;;5116012;28;20068;-80
2022/04/02 13:00:36;;;;;;;5.60;3.58;;;4.80;99.90;;;;;;5115684;28;20023;-82
2022/04/02 13:03:02;;;;;;;5.63;3.35;;;4.70;99.90;;;;;;5114489;28;20043;-79
2022/04/02 13:05:44;;;;;;;6.30;3.63;;;4.60;99.90;;;;;;5115525;28;20335;-81
2022/04/02 13:08:29;;;;;;;5.95;3.95;;;4.50;99.90;;;;;;5113027;28;20024;-79
2022/04/02 13:11:01;;;;;;;8.00;3.92;;;4.50;99.90;;;;;;5115830;28;20059;-80
2022/04/02 13:13:42;;;;;;;6.47;3.28;;;4.40;99.90;;;;;;5115497;28;20024;-81